sensor_id;sensor_type;location;lat;lon;timestamp;P1;durP1;ratioP1;P2;durP2;ratioP2
50319;SDS011;36226;53.464;9.852;2023-06-22T00:01:01;3.80;;;3.10;;
50319;SDS011;36226;53.464;9.852;2023-06-22T00:03:26;3.80;;;3.30;;
50319;SDS011;36226;53.464;9.852;2023-06-22T00:05:52;4.45;;;3.10;;
50319;SDS011;36226;53.464;9.852;2023-06-22T00:08:18;3.53;;;3.10;;
50319;SDS011;36226;53.464;9.852;2023-06-22T00:10:44;3.92;;;2.90;;
50319;SDS011;36226;53.464;9.852;2023-06-22T00:13:09;4.03;;;3.00;;
50319;SDS011;36226;53.464;9.852;2023-06-22T00:15:35;4.50;;;3.60;;
50319;SDS011;36226;53.464;9.852;2023-06-22T00:18:02;4.68;;;3.53;;
50319;SDS011;36226;53.464;9.852;2023-06-22T00:20:28;4.63;;;3.10;;
50319;SDS011;36226;53.464;9.852;2023-06-22T00:22:57;3.90;;;3.20;;
50319;SDS011;36226;53.464;9.852;2023-06-22T00:25:23;3.47;;;2.83;;
50319;SDS011;36226;53.464;9.852;2023-06-22T00:27:49;4.47;;;2.97;;
50319;SDS011;36226;53.464;9.852;2023-06-22T00:30:17;3.90;;;3.30;;
50319;SDS011;36226;53.464;9.852;2023-06-22T00:32:44;5.20;;;3.10;;
50319;SDS011;36226;53.464;9.852;2023-06-22T00:35:09;5.53;;;3.00;;
50319;SDS011;36226;53.464;9.852;2023-06-22T00:37:35;4.70;;;3.33;;
50319;SDS011;36226;53.464;9.852;2023-06-22T00:40:02;6.63;;;3.03;;
50319;SDS011;36226;53.464;9.852;2023-06-22T00:42:29;4.28;;;3.08;;
50319;SDS011;36226;53.464;9.852;2023-06-22T00:44:54;5.65;;;3.40;;
50319;SDS011;36226;53.464;9.852;2023-06-22T00:47:20;3.47;;;2.95;;
50319;SDS011;36226;53.464;9.852;2023-06-22T00:49:46;4.45;;;2.92;;
50319;SDS011;36226;53.464;9.852;2023-06-22T00:52:16;5.70;;;3.35;;
50319;SDS011;36226;53.464;9.852;2023-06-22T00:54:50;3.67;;;3.13;;
50319;SDS011;36226;53.464;9.852;2023-06-22T00:57:16;4.50;;;3.13;;
50319;SDS011;36226;53.464;9.852;2023-06-22T00:59:42;3.50;;;2.83;;
50319;SDS011;36226;53.464;9.852;2023-06-22T01:02:10;4.05;;;3.00;;
50319;SDS011;36226;53.464;9.852;2023-06-22T01:04:37;4.15;;;3.03;;
50319;SDS011;36226;53.464;9.852;2023-06-22T01:07:10;4.57;;;3.22;;
50319;SDS011;36226;53.464;9.852;2023-06-22T01:09:41;4.50;;;3.30;;
50319;SDS011;36226;53.464;9.852;2023-06-22T01:12:14;4.53;;;3.30;;
50319;SDS011;36226;53.464;9.852;2023-06-22T01:14:50;6.50;;;3.13;;
50319;SDS011;36226;53.464;9.852;2023-06-22T01:17:19;4.57;;;3.47;;
50319;SDS011;36226;53.464;9.852;2023-06-22T01:19:49;4.22;;;3.03;;
50319;SDS011;36226;53.464;9.852;2023-06-22T01:22:21;3.80;;;3.30;;
50319;SDS011;36226;53.464;9.852;2023-06-22T01:24:51;4.05;;;3.50;;
50319;SDS011;36226;53.464;9.852;2023-06-22T01:30:40;6.18;;;2.75;;
50319;SDS011;36226;53.464;9.852;2023-06-22T01:33:06;3.65;;;3.08;;
50319;SDS011;36226;53.464;9.852;2023-06-22T01:35:32;6.03;;;3.30;;
50319;SDS011;36226;53.464;9.852;2023-06-22T01:37:57;4.78;;;3.10;;
50319;SDS011;36226;53.464;9.852;2023-06-22T01:40:23;4.13;;;3.10;;
50319;SDS011;36226;53.464;9.852;2023-06-22T01:42:49;4.05;;;3.05;;
50319;SDS011;36226;53.464;9.852;2023-06-22T01:45:15;5.45;;;3.35;;
50319;SDS011;36226;53.464;9.852;2023-06-22T01:47:41;4.90;;;2.95;;
50319;SDS011;36226;53.464;9.852;2023-06-22T01:50:07;4.57;;;3.13;;
50319;SDS011;36226;53.464;9.852;2023-06-22T01:52:32;4.32;;;3.10;;
50319;SDS011;36226;53.464;9.852;2023-06-22T01:54:59;5.00;;;3.35;;
50319;SDS011;36226;53.464;9.852;2023-06-22T01:57:25;5.03;;;3.55;;
50319;SDS011;36226;53.464;9.852;2023-06-22T01:59:53;3.75;;;3.08;;
50319;SDS011;36226;53.464;9.852;2023-06-22T02:02:23;6.43;;;3.40;;
50319;SDS011;36226;53.464;9.852;2023-06-22T02:05:03;3.85;;;3.08;;
50319;SDS011;36226;53.464;9.852;2023-06-22T02:07:38;6.20;;;3.60;;
50319;SDS011;36226;53.464;9.852;2023-06-22T02:10:06;4.53;;;3.37;;
50319;SDS011;36226;53.464;9.852;2023-06-22T02:12:32;4.55;;;3.22;;
50319;SDS011;36226;53.464;9.852;2023-06-22T02:14:59;5.75;;;3.40;;
50319;SDS011;36226;53.464;9.852;2023-06-22T02:17:26;4.53;;;2.95;;
50319;SDS011;36226;53.464;9.852;2023-06-22T02:19:51;4.22;;;3.25;;
50319;SDS011;36226;53.464;9.852;2023-06-22T02:22:17;5.78;;;3.33;;
50319;SDS011;36226;53.464;9.852;2023-06-22T02:24:42;5.07;;;3.40;;
50319;SDS011;36226;53.464;9.852;2023-06-22T02:27:08;6.95;;;3.70;;
50319;SDS011;36226;53.464;9.852;2023-06-22T02:29:33;5.80;;;3.40;;
50319;SDS011;36226;53.464;9.852;2023-06-22T02:31:58;5.32;;;3.67;;
50319;SDS011;36226;53.464;9.852;2023-06-22T02:34:24;5.55;;;3.42;;
50319;SDS011;36226;53.464;9.852;2023-06-22T02:36:50;6.95;;;3.65;;
50319;SDS011;36226;53.464;9.852;2023-06-22T02:39:22;4.07;;;3.28;;
50319;SDS011;36226;53.464;9.852;2023-06-22T02:41:53;5.75;;;3.47;;
50319;SDS011;36226;53.464;9.852;2023-06-22T02:44:19;4.95;;;3.90;;
50319;SDS011;36226;53.464;9.852;2023-06-22T02:46:45;5.85;;;3.60;;
50319;SDS011;36226;53.464;9.852;2023-06-22T02:49:12;4.85;;;3.50;;
50319;SDS011;36226;53.464;9.852;2023-06-22T02:51:42;5.90;;;3.40;;
50319;SDS011;36226;53.464;9.852;2023-06-22T02:54:09;4.97;;;3.53;;
50319;SDS011;36226;53.464;9.852;2023-06-22T02:56:35;5.13;;;3.40;;
50319;SDS011;36226;53.464;9.852;2023-06-22T02:59:01;5.72;;;3.72;;
50319;SDS011;36226;53.464;9.852;2023-06-22T03:01:27;5.22;;;3.70;;
50319;SDS011;36226;53.464;9.852;2023-06-22T03:03:55;5.05;;;3.65;;
50319;SDS011;36226;53.464;9.852;2023-06-22T03:06:20;6.82;;;3.92;;
50319;SDS011;36226;53.464;9.852;2023-06-22T03:08:49;5.80;;;3.92;;
50319;SDS011;36226;53.464;9.852;2023-06-22T03:11:15;5.43;;;4.05;;
50319;SDS011;36226;53.464;9.852;2023-06-22T03:13:40;4.38;;;3.45;;
50319;SDS011;36226;53.464;9.852;2023-06-22T03:16:06;4.72;;;3.42;;
50319;SDS011;36226;53.464;9.852;2023-06-22T03:18:31;5.78;;;4.10;;
50319;SDS011;36226;53.464;9.852;2023-06-22T03:20:56;6.35;;;3.85;;
50319;SDS011;36226;53.464;9.852;2023-06-22T03:23:22;5.75;;;3.90;;
50319;SDS011;36226;53.464;9.852;2023-06-22T03:25:47;7.35;;;4.00;;
50319;SDS011;36226;53.464;9.852;2023-06-22T03:28:13;5.53;;;4.18;;
50319;SDS011;36226;53.464;9.852;2023-06-22T03:30:38;5.05;;;3.50;;
50319;SDS011;36226;53.464;9.852;2023-06-22T03:33:03;5.82;;;3.90;;
50319;SDS011;36226;53.464;9.852;2023-06-22T03:35:29;5.35;;;4.03;;
50319;SDS011;36226;53.464;9.852;2023-06-22T03:37:54;5.63;;;3.85;;
50319;SDS011;36226;53.464;9.852;2023-06-22T03:40:20;5.22;;;3.78;;
50319;SDS011;36226;53.464;9.852;2023-06-22T03:42:45;4.28;;;3.70;;
50319;SDS011;36226;53.464;9.852;2023-06-22T03:45:11;4.57;;;3.50;;
50319;SDS011;36226;53.464;9.852;2023-06-22T03:47:36;4.65;;;3.60;;
50319;SDS011;36226;53.464;9.852;2023-06-22T03:50:02;5.40;;;3.95;;
50319;SDS011;36226;53.464;9.852;2023-06-22T03:52:28;5.40;;;4.15;;
50319;SDS011;36226;53.464;9.852;2023-06-22T03:54:54;6.53;;;4.30;;
50319;SDS011;36226;53.464;9.852;2023-06-22T03:57:19;5.22;;;4.00;;
50319;SDS011;36226;53.464;9.852;2023-06-22T03:59:45;5.68;;;3.50;;
50319;SDS011;36226;53.464;9.852;2023-06-22T04:02:10;5.75;;;4.00;;
50319;SDS011;36226;53.464;9.852;2023-06-22T04:04:35;6.68;;;4.22;;
50319;SDS011;36226;53.464;9.852;2023-06-22T04:07:01;5.07;;;3.85;;
50319;SDS011;36226;53.464;9.852;2023-06-22T04:09:26;5.93;;;4.25;;
50319;SDS011;36226;53.464;9.852;2023-06-22T04:11:51;5.82;;;4.40;;
50319;SDS011;36226;53.464;9.852;2023-06-22T04:14:17;5.50;;;4.18;;
50319;SDS011;36226;53.464;9.852;2023-06-22T04:16:42;5.32;;;4.07;;
50319;SDS011;36226;53.464;9.852;2023-06-22T04:19:08;5.00;;;4.00;;
50319;SDS011;36226;53.464;9.852;2023-06-22T04:21:39;6.38;;;4.47;;
50319;SDS011;36226;53.464;9.852;2023-06-22T04:24:04;7.88;;;4.50;;
50319;SDS011;36226;53.464;9.852;2023-06-22T04:26:30;7.32;;;4.72;;
50319;SDS011;36226;53.464;9.852;2023-06-22T04:28:55;6.50;;;4.05;;
50319;SDS011;36226;53.464;9.852;2023-06-22T04:31:20;6.65;;;4.93;;
50319;SDS011;36226;53.464;9.852;2023-06-22T04:33:46;8.18;;;4.57;;
50319;SDS011;36226;53.464;9.852;2023-06-22T04:36:11;7.30;;;3.75;;
50319;SDS011;36226;53.464;9.852;2023-06-22T04:38:40;5.07;;;4.43;;
50319;SDS011;36226;53.464;9.852;2023-06-22T04:41:05;5.50;;;4.25;;
50319;SDS011;36226;53.464;9.852;2023-06-22T04:43:31;4.38;;;3.90;;
50319;SDS011;36226;53.464;9.852;2023-06-22T04:45:58;6.45;;;4.40;;
50319;SDS011;36226;53.464;9.852;2023-06-22T04:48:28;5.72;;;4.13;;
50319;SDS011;36226;53.464;9.852;2023-06-22T04:50:58;5.70;;;3.90;;
50319;SDS011;36226;53.464;9.852;2023-06-22T04:53:28;4.60;;;3.58;;
50319;SDS011;36226;53.464;9.852;2023-06-22T04:55:54;5.40;;;4.40;;
50319;SDS011;36226;53.464;9.852;2023-06-22T04:58:20;6.13;;;4.25;;
50319;SDS011;36226;53.464;9.852;2023-06-22T05:00:46;7.25;;;4.22;;
50319;SDS011;36226;53.464;9.852;2023-06-22T05:03:12;5.03;;;3.92;;
50319;SDS011;36226;53.464;9.852;2023-06-22T05:05:37;5.75;;;4.22;;
50319;SDS011;36226;53.464;9.852;2023-06-22T05:08:03;8.35;;;5.15;;
50319;SDS011;36226;53.464;9.852;2023-06-22T05:10:31;7.72;;;4.22;;
50319;SDS011;36226;53.464;9.852;2023-06-22T05:12:57;5.40;;;4.18;;
50319;SDS011;36226;53.464;9.852;2023-06-22T05:15:23;6.32;;;4.60;;
50319;SDS011;36226;53.464;9.852;2023-06-22T05:17:51;8.68;;;4.55;;
50319;SDS011;36226;53.464;9.852;2023-06-22T05:20:17;6.13;;;4.07;;
50319;SDS011;36226;53.464;9.852;2023-06-22T05:22:43;5.90;;;4.50;;
50319;SDS011;36226;53.464;9.852;2023-06-22T05:25:09;8.18;;;6.20;;
50319;SDS011;36226;53.464;9.852;2023-06-22T05:27:35;7.40;;;5.47;;
50319;SDS011;36226;53.464;9.852;2023-06-22T05:30:04;7.70;;;5.00;;
50319;SDS011;36226;53.464;9.852;2023-06-22T05:32:31;8.73;;;5.93;;
50319;SDS011;36226;53.464;9.852;2023-06-22T05:34:57;11.52;;;6.38;;
50319;SDS011;36226;53.464;9.852;2023-06-22T05:37:22;8.30;;;5.55;;
50319;SDS011;36226;53.464;9.852;2023-06-22T05:39:48;9.05;;;6.43;;
50319;SDS011;36226;53.464;9.852;2023-06-22T05:42:13;6.97;;;4.97;;
50319;SDS011;36226;53.464;9.852;2023-06-22T05:44:38;7.78;;;6.10;;
50319;SDS011;36226;53.464;9.852;2023-06-22T05:47:05;7.85;;;5.78;;
50319;SDS011;36226;53.464;9.852;2023-06-22T05:49:31;7.95;;;5.57;;
50319;SDS011;36226;53.464;9.852;2023-06-22T05:51:57;8.65;;;5.45;;
50319;SDS011;36226;53.464;9.852;2023-06-22T05:54:23;7.40;;;4.93;;
50319;SDS011;36226;53.464;9.852;2023-06-22T05:56:49;9.38;;;6.22;;
50319;SDS011;36226;53.464;9.852;2023-06-22T05:59:14;10.32;;;5.70;;
50319;SDS011;36226;53.464;9.852;2023-06-22T06:01:39;13.98;;;5.97;;
50319;SDS011;36226;53.464;9.852;2023-06-22T06:04:05;8.88;;;5.45;;
50319;SDS011;36226;53.464;9.852;2023-06-22T06:06:33;7.38;;;4.97;;
50319;SDS011;36226;53.464;9.852;2023-06-22T06:08:59;8.60;;;4.88;;
50319;SDS011;36226;53.464;9.852;2023-06-22T06:11:25;11.45;;;4.93;;
50319;SDS011;36226;53.464;9.852;2023-06-22T06:13:51;7.15;;;4.20;;
50319;SDS011;36226;53.464;9.852;2023-06-22T06:16:16;6.90;;;4.68;;
50319;SDS011;36226;53.464;9.852;2023-06-22T06:18:41;11.55;;;4.13;;
50319;SDS011;36226;53.464;9.852;2023-06-22T06:21:07;7.25;;;3.80;;
50319;SDS011;36226;53.464;9.852;2023-06-22T06:23:32;6.28;;;4.03;;
50319;SDS011;36226;53.464;9.852;2023-06-22T06:25:57;8.35;;;3.60;;
50319;SDS011;36226;53.464;9.852;2023-06-22T06:28:24;5.60;;;3.88;;
50319;SDS011;36226;53.464;9.852;2023-06-22T06:30:49;8.95;;;3.95;;
50319;SDS011;36226;53.464;9.852;2023-06-22T06:33:16;8.20;;;4.10;;
50319;SDS011;36226;53.464;9.852;2023-06-22T06:35:42;5.25;;;3.20;;
50319;SDS011;36226;53.464;9.852;2023-06-22T06:38:07;6.35;;;3.33;;
50319;SDS011;36226;53.464;9.852;2023-06-22T06:40:33;5.70;;;3.17;;
50319;SDS011;36226;53.464;9.852;2023-06-22T06:42:58;4.88;;;3.08;;
50319;SDS011;36226;53.464;9.852;2023-06-22T06:45:24;4.93;;;3.03;;
50319;SDS011;36226;53.464;9.852;2023-06-22T06:47:50;4.15;;;2.75;;
50319;SDS011;36226;53.464;9.852;2023-06-22T06:50:16;4.28;;;2.72;;
50319;SDS011;36226;53.464;9.852;2023-06-22T06:52:42;5.97;;;3.10;;
50319;SDS011;36226;53.464;9.852;2023-06-22T06:55:08;4.32;;;2.70;;
50319;SDS011;36226;53.464;9.852;2023-06-22T06:57:36;4.93;;;2.50;;
50319;SDS011;36226;53.464;9.852;2023-06-22T07:00:03;3.38;;;2.30;;
50319;SDS011;36226;53.464;9.852;2023-06-22T07:02:37;3.65;;;2.50;;
50319;SDS011;36226;53.464;9.852;2023-06-22T07:05:03;7.15;;;3.40;;
50319;SDS011;36226;53.464;9.852;2023-06-22T07:07:29;4.97;;;2.30;;
50319;SDS011;36226;53.464;9.852;2023-06-22T07:09:55;5.03;;;2.85;;
50319;SDS011;36226;53.464;9.852;2023-06-22T07:30:11;5.03;;;2.70;;
50319;SDS011;36226;53.464;9.852;2023-06-22T07:32:37;4.00;;;2.97;;
50319;SDS011;36226;53.464;9.852;2023-06-22T07:35:02;5.10;;;3.35;;
50319;SDS011;36226;53.464;9.852;2023-06-22T07:37:29;8.45;;;3.15;;
50319;SDS011;36226;53.464;9.852;2023-06-22T07:39:55;6.00;;;3.65;;
50319;SDS011;36226;53.464;9.852;2023-06-22T07:42:24;6.00;;;3.00;;
50319;SDS011;36226;53.464;9.852;2023-06-22T07:44:50;4.60;;;3.03;;
50319;SDS011;36226;53.464;9.852;2023-06-22T07:47:16;6.72;;;3.22;;
50319;SDS011;36226;53.464;9.852;2023-06-22T07:49:43;6.32;;;3.10;;
50319;SDS011;36226;53.464;9.852;2023-06-22T07:52:08;4.93;;;2.70;;
50319;SDS011;36226;53.464;9.852;2023-06-22T07:54:34;5.18;;;2.78;;
50319;SDS011;36226;53.464;9.852;2023-06-22T07:56:59;5.22;;;2.15;;
50319;SDS011;36226;53.464;9.852;2023-06-22T07:59:24;3.75;;;2.40;;
50319;SDS011;36226;53.464;9.852;2023-06-22T08:01:50;3.92;;;2.30;;
50319;SDS011;36226;53.464;9.852;2023-06-22T08:04:15;4.25;;;2.58;;
50319;SDS011;36226;53.464;9.852;2023-06-22T08:06:41;3.65;;;2.72;;
50319;SDS011;36226;53.464;9.852;2023-06-22T08:09:06;5.43;;;2.45;;
50319;SDS011;36226;53.464;9.852;2023-06-22T08:11:31;7.05;;;2.40;;
50319;SDS011;36226;53.464;9.852;2023-06-22T08:13:57;4.82;;;2.38;;
50319;SDS011;36226;53.464;9.852;2023-06-22T08:16:23;4.40;;;2.35;;
50319;SDS011;36226;53.464;9.852;2023-06-22T08:18:49;4.43;;;2.28;;
50319;SDS011;36226;53.464;9.852;2023-06-22T08:21:14;5.65;;;2.42;;
50319;SDS011;36226;53.464;9.852;2023-06-22T08:23:39;4.22;;;2.30;;
50319;SDS011;36226;53.464;9.852;2023-06-22T08:26:05;4.03;;;2.40;;
50319;SDS011;36226;53.464;9.852;2023-06-22T08:28:30;4.40;;;2.60;;
50319;SDS011;36226;53.464;9.852;2023-06-22T08:30:56;4.50;;;1.95;;
50319;SDS011;36226;53.464;9.852;2023-06-22T08:33:21;5.60;;;2.40;;
50319;SDS011;36226;53.464;9.852;2023-06-22T08:35:53;3.03;;;2.17;;
50319;SDS011;36226;53.464;9.852;2023-06-22T08:38:19;3.85;;;1.98;;
50319;SDS011;36226;53.464;9.852;2023-06-22T08:40:45;3.85;;;2.10;;
50319;SDS011;36226;53.464;9.852;2023-06-22T08:43:10;2.80;;;2.08;;
50319;SDS011;36226;53.464;9.852;2023-06-22T08:45:35;2.67;;;1.90;;
50319;SDS011;36226;53.464;9.852;2023-06-22T08:48:01;4.45;;;2.40;;
50319;SDS011;36226;53.464;9.852;2023-06-22T08:50:26;5.05;;;2.40;;
50319;SDS011;36226;53.464;9.852;2023-06-22T08:52:51;3.72;;;2.45;;
50319;SDS011;36226;53.464;9.852;2023-06-22T08:55:17;3.15;;;2.00;;
50319;SDS011;36226;53.464;9.852;2023-06-22T08:57:42;4.78;;;2.63;;
50319;SDS011;36226;53.464;9.852;2023-06-22T09:00:09;5.53;;;2.70;;
50319;SDS011;36226;53.464;9.852;2023-06-22T09:02:41;6.25;;;3.17;;
50319;SDS011;36226;53.464;9.852;2023-06-22T09:05:07;6.07;;;3.35;;
50319;SDS011;36226;53.464;9.852;2023-06-22T09:07:32;8.15;;;3.33;;
50319;SDS011;36226;53.464;9.852;2023-06-22T09:09:59;8.00;;;3.42;;
50319;SDS011;36226;53.464;9.852;2023-06-22T09:12:25;6.38;;;3.15;;
50319;SDS011;36226;53.464;9.852;2023-06-22T09:14:52;7.47;;;3.20;;
50319;SDS011;36226;53.464;9.852;2023-06-22T09:17:18;5.47;;;3.00;;
50319;SDS011;36226;53.464;9.852;2023-06-22T09:19:43;5.90;;;3.15;;
50319;SDS011;36226;53.464;9.852;2023-06-22T09:22:08;7.75;;;3.72;;
50319;SDS011;36226;53.464;9.852;2023-06-22T09:24:34;6.47;;;3.25;;
50319;SDS011;36226;53.464;9.852;2023-06-22T09:26:59;6.28;;;3.20;;
50319;SDS011;36226;53.464;9.852;2023-06-22T09:29:25;7.05;;;3.70;;
50319;SDS011;36226;53.464;9.852;2023-06-22T09:31:50;6.90;;;3.72;;
50319;SDS011;36226;53.464;9.852;2023-06-22T09:34:16;8.38;;;4.45;;
50319;SDS011;36226;53.464;9.852;2023-06-22T09:36:45;7.38;;;3.80;;
50319;SDS011;36226;53.464;9.852;2023-06-22T09:39:10;5.38;;;3.20;;
50319;SDS011;36226;53.464;9.852;2023-06-22T09:41:36;5.72;;;2.60;;
50319;SDS011;36226;53.464;9.852;2023-06-22T09:44:01;5.30;;;3.28;;
50319;SDS011;36226;53.464;9.852;2023-06-22T09:46:26;4.25;;;2.58;;
50319;SDS011;36226;53.464;9.852;2023-06-22T09:48:53;3.88;;;2.50;;
50319;SDS011;36226;53.464;9.852;2023-06-22T09:51:18;3.28;;;2.60;;
50319;SDS011;36226;53.464;9.852;2023-06-22T09:53:45;3.08;;;2.55;;
50319;SDS011;36226;53.464;9.852;2023-06-22T09:56:10;6.07;;;2.20;;
50319;SDS011;36226;53.464;9.852;2023-06-22T09:58:43;3.15;;;2.10;;
50319;SDS011;36226;53.464;9.852;2023-06-22T10:01:09;5.65;;;2.25;;
50319;SDS011;36226;53.464;9.852;2023-06-22T10:03:35;4.43;;;2.42;;
50319;SDS011;36226;53.464;9.852;2023-06-22T10:06:01;5.40;;;2.20;;
50319;SDS011;36226;53.464;9.852;2023-06-22T10:08:26;4.75;;;2.38;;
50319;SDS011;36226;53.464;9.852;2023-06-22T10:10:51;3.00;;;2.38;;
50319;SDS011;36226;53.464;9.852;2023-06-22T10:13:17;3.20;;;2.60;;
50319;SDS011;36226;53.464;9.852;2023-06-22T10:15:43;4.63;;;2.50;;
50319;SDS011;36226;53.464;9.852;2023-06-22T10:18:14;5.28;;;2.53;;
50319;SDS011;36226;53.464;9.852;2023-06-22T10:20:40;5.50;;;2.92;;
50319;SDS011;36226;53.464;9.852;2023-06-22T10:23:05;2.72;;;2.10;;
50319;SDS011;36226;53.464;9.852;2023-06-22T10:25:30;4.13;;;2.30;;
50319;SDS011;36226;53.464;9.852;2023-06-22T10:27:56;5.45;;;2.75;;
50319;SDS011;36226;53.464;9.852;2023-06-22T10:30:22;6.93;;;2.83;;
50319;SDS011;36226;53.464;9.852;2023-06-22T10:32:48;4.57;;;2.65;;
50319;SDS011;36226;53.464;9.852;2023-06-22T10:35:13;5.63;;;2.70;;
50319;SDS011;36226;53.464;9.852;2023-06-22T10:37:41;3.95;;;2.40;;
50319;SDS011;36226;53.464;9.852;2023-06-22T10:40:10;4.88;;;2.40;;
50319;SDS011;36226;53.464;9.852;2023-06-22T10:42:40;3.45;;;2.47;;
50319;SDS011;36226;53.464;9.852;2023-06-22T10:45:05;4.93;;;2.90;;
50319;SDS011;36226;53.464;9.852;2023-06-22T10:47:31;3.85;;;2.80;;
50319;SDS011;36226;53.464;9.852;2023-06-22T10:49:56;5.43;;;2.78;;
50319;SDS011;36226;53.464;9.852;2023-06-22T10:52:22;4.47;;;3.17;;
50319;SDS011;36226;53.464;9.852;2023-06-22T10:54:47;3.05;;;2.38;;
50319;SDS011;36226;53.464;9.852;2023-06-22T10:57:13;3.85;;;2.65;;
50319;SDS011;36226;53.464;9.852;2023-06-22T10:59:38;6.68;;;2.80;;
50319;SDS011;36226;53.464;9.852;2023-06-22T11:02:04;3.58;;;3.05;;
50319;SDS011;36226;53.464;9.852;2023-06-22T11:04:29;3.75;;;3.10;;
50319;SDS011;36226;53.464;9.852;2023-06-22T11:06:55;3.10;;;2.78;;
50319;SDS011;36226;53.464;9.852;2023-06-22T11:09:21;5.10;;;2.80;;
50319;SDS011;36226;53.464;9.852;2023-06-22T11:11:47;3.20;;;2.90;;
50319;SDS011;36226;53.464;9.852;2023-06-22T11:14:12;5.18;;;3.15;;
50319;SDS011;36226;53.464;9.852;2023-06-22T11:16:38;4.90;;;3.13;;
50319;SDS011;36226;53.464;9.852;2023-06-22T11:19:04;8.35;;;3.67;;
50319;SDS011;36226;53.464;9.852;2023-06-22T11:21:30;4.78;;;3.40;;
50319;SDS011;36226;53.464;9.852;2023-06-22T11:23:56;6.38;;;3.85;;
50319;SDS011;36226;53.464;9.852;2023-06-22T11:26:21;4.43;;;3.35;;
50319;SDS011;36226;53.464;9.852;2023-06-22T11:28:47;4.63;;;3.35;;
50319;SDS011;36226;53.464;9.852;2023-06-22T11:31:12;4.00;;;3.38;;
50319;SDS011;36226;53.464;9.852;2023-06-22T11:33:38;4.25;;;3.58;;
50319;SDS011;36226;53.464;9.852;2023-06-22T11:36:03;4.63;;;3.70;;
50319;SDS011;36226;53.464;9.852;2023-06-22T11:38:28;4.22;;;3.28;;
50319;SDS011;36226;53.464;9.852;2023-06-22T11:40:55;4.45;;;3.00;;
50319;SDS011;36226;53.464;9.852;2023-06-22T11:43:21;5.20;;;3.47;;
50319;SDS011;36226;53.464;9.852;2023-06-22T11:45:46;3.97;;;3.28;;
50319;SDS011;36226;53.464;9.852;2023-06-22T11:48:11;5.10;;;3.33;;
50319;SDS011;36226;53.464;9.852;2023-06-22T11:50:37;4.00;;;3.25;;
50319;SDS011;36226;53.464;9.852;2023-06-22T11:53:02;5.25;;;3.25;;
50319;SDS011;36226;53.464;9.852;2023-06-22T11:55:28;4.18;;;3.65;;
50319;SDS011;36226;53.464;9.852;2023-06-22T11:57:54;5.57;;;3.30;;
50319;SDS011;36226;53.464;9.852;2023-06-22T12:00:21;4.25;;;3.20;;
50319;SDS011;36226;53.464;9.852;2023-06-22T12:02:49;4.80;;;3.47;;
50319;SDS011;36226;53.464;9.852;2023-06-22T12:05:16;5.45;;;3.78;;
50319;SDS011;36226;53.464;9.852;2023-06-22T12:07:41;4.60;;;3.65;;
50319;SDS011;36226;53.464;9.852;2023-06-22T12:10:07;4.55;;;3.55;;
50319;SDS011;36226;53.464;9.852;2023-06-22T12:12:32;5.50;;;3.70;;
50319;SDS011;36226;53.464;9.852;2023-06-22T12:14:58;5.95;;;3.63;;
50319;SDS011;36226;53.464;9.852;2023-06-22T12:17:28;3.85;;;3.45;;
50319;SDS011;36226;53.464;9.852;2023-06-22T12:19:53;4.55;;;3.75;;
50319;SDS011;36226;53.464;9.852;2023-06-22T12:22:18;4.65;;;3.25;;
50319;SDS011;36226;53.464;9.852;2023-06-22T12:24:44;3.92;;;3.53;;
50319;SDS011;36226;53.464;9.852;2023-06-22T12:27:09;4.78;;;4.05;;
50319;SDS011;36226;53.464;9.852;2023-06-22T12:29:35;4.28;;;3.35;;
50319;SDS011;36226;53.464;9.852;2023-06-22T12:32:00;4.32;;;3.72;;
50319;SDS011;36226;53.464;9.852;2023-06-22T12:34:25;4.55;;;3.97;;
50319;SDS011;36226;53.464;9.852;2023-06-22T12:36:51;4.65;;;3.72;;
50319;SDS011;36226;53.464;9.852;2023-06-22T12:39:19;6.00;;;3.97;;
50319;SDS011;36226;53.464;9.852;2023-06-22T12:41:44;6.22;;;4.50;;
50319;SDS011;36226;53.464;9.852;2023-06-22T12:44:09;5.28;;;4.10;;
50319;SDS011;36226;53.464;9.852;2023-06-22T12:46:35;5.72;;;4.13;;
50319;SDS011;36226;53.464;9.852;2023-06-22T12:49:02;4.80;;;3.83;;
50319;SDS011;36226;53.464;9.852;2023-06-22T12:51:29;4.53;;;3.83;;
50319;SDS011;36226;53.464;9.852;2023-06-22T12:53:54;5.35;;;3.97;;
50319;SDS011;36226;53.464;9.852;2023-06-22T12:56:20;4.30;;;3.88;;
50319;SDS011;36226;53.464;9.852;2023-06-22T12:58:45;4.05;;;3.60;;
50319;SDS011;36226;53.464;9.852;2023-06-22T13:01:11;5.78;;;3.92;;
50319;SDS011;36226;53.464;9.852;2023-06-22T13:03:36;6.15;;;3.85;;
50319;SDS011;36226;53.464;9.852;2023-06-22T13:06:01;7.88;;;4.40;;
50319;SDS011;36226;53.464;9.852;2023-06-22T13:08:28;5.13;;;4.32;;
50319;SDS011;36226;53.464;9.852;2023-06-22T13:10:54;5.10;;;4.60;;
50319;SDS011;36226;53.464;9.852;2023-06-22T13:13:21;5.55;;;4.25;;
50319;SDS011;36226;53.464;9.852;2023-06-22T13:15:49;5.30;;;4.80;;
50319;SDS011;36226;53.464;9.852;2023-06-22T13:18:14;5.18;;;4.68;;
50319;SDS011;36226;53.464;9.852;2023-06-22T13:20:40;4.60;;;4.20;;
50319;SDS011;36226;53.464;9.852;2023-06-22T13:23:05;5.88;;;4.10;;
50319;SDS011;36226;53.464;9.852;2023-06-22T13:25:30;5.05;;;4.35;;
50319;SDS011;36226;53.464;9.852;2023-06-22T13:27:56;6.78;;;4.30;;
50319;SDS011;36226;53.464;9.852;2023-06-22T13:30:21;6.80;;;4.30;;
50319;SDS011;36226;53.464;9.852;2023-06-22T13:32:47;5.15;;;4.25;;
50319;SDS011;36226;53.464;9.852;2023-06-22T13:35:12;6.32;;;4.43;;
50319;SDS011;36226;53.464;9.852;2023-06-22T13:37:37;4.30;;;3.90;;
50319;SDS011;36226;53.464;9.852;2023-06-22T13:40:04;5.68;;;4.57;;
50319;SDS011;36226;53.464;9.852;2023-06-22T13:42:33;7.65;;;4.22;;
50319;SDS011;36226;53.464;9.852;2023-06-22T13:44:58;4.57;;;4.18;;
50319;SDS011;36226;53.464;9.852;2023-06-22T13:47:24;4.88;;;4.38;;
50319;SDS011;36226;53.464;9.852;2023-06-22T13:49:49;5.18;;;3.85;;
50319;SDS011;36226;53.464;9.852;2023-06-22T13:52:15;6.47;;;4.25;;
50319;SDS011;36226;53.464;9.852;2023-06-22T13:54:40;4.50;;;4.10;;
50319;SDS011;36226;53.464;9.852;2023-06-22T13:57:05;8.13;;;4.82;;
50319;SDS011;36226;53.464;9.852;2023-06-22T13:59:31;4.93;;;4.15;;
50319;SDS011;36226;53.464;9.852;2023-06-22T14:01:56;5.47;;;4.28;;
50319;SDS011;36226;53.464;9.852;2023-06-22T14:04:25;6.03;;;4.63;;
50319;SDS011;36226;53.464;9.852;2023-06-22T14:06:50;5.57;;;4.38;;
50319;SDS011;36226;53.464;9.852;2023-06-22T14:09:15;4.72;;;4.22;;
50319;SDS011;36226;53.464;9.852;2023-06-22T14:11:41;4.82;;;4.32;;
50319;SDS011;36226;53.464;9.852;2023-06-22T14:14:06;5.30;;;4.55;;
50319;SDS011;36226;53.464;9.852;2023-06-22T14:16:32;5.63;;;4.82;;
50319;SDS011;36226;53.464;9.852;2023-06-22T14:18:57;6.80;;;4.55;;
50319;SDS011;36226;53.464;9.852;2023-06-22T14:21:22;6.63;;;4.72;;
50319;SDS011;36226;53.464;9.852;2023-06-22T14:23:48;6.18;;;4.40;;
50319;SDS011;36226;53.464;9.852;2023-06-22T14:26:17;5.75;;;5.10;;
50319;SDS011;36226;53.464;9.852;2023-06-22T14:28:46;6.65;;;4.70;;
50319;SDS011;36226;53.464;9.852;2023-06-22T14:31:16;5.65;;;4.80;;
50319;SDS011;36226;53.464;9.852;2023-06-22T14:33:46;5.63;;;4.75;;
50319;SDS011;36226;53.464;9.852;2023-06-22T14:36:13;5.22;;;4.72;;
50319;SDS011;36226;53.464;9.852;2023-06-22T14:38:39;6.57;;;4.95;;
50319;SDS011;36226;53.464;9.852;2023-06-22T14:41:04;6.00;;;4.60;;
50319;SDS011;36226;53.464;9.852;2023-06-22T14:43:29;5.43;;;4.43;;
50319;SDS011;36226;53.464;9.852;2023-06-22T14:45:55;4.60;;;4.13;;
50319;SDS011;36226;53.464;9.852;2023-06-22T14:48:20;5.50;;;4.45;;
50319;SDS011;36226;53.464;9.852;2023-06-22T14:50:45;6.40;;;4.90;;
50319;SDS011;36226;53.464;9.852;2023-06-22T14:53:11;6.10;;;4.60;;
50319;SDS011;36226;53.464;9.852;2023-06-22T14:55:36;5.03;;;4.50;;
50319;SDS011;36226;53.464;9.852;2023-06-22T14:58:01;6.30;;;4.47;;
50319;SDS011;36226;53.464;9.852;2023-06-22T15:00:27;5.72;;;4.40;;
50319;SDS011;36226;53.464;9.852;2023-06-22T15:02:52;5.72;;;4.60;;